Aviation Digital Data Service (ADDS)

Output produced by METARs form (2314 UTC 23 May 2022)
found at http://www.aviationweather.gov/metar/data/
 
TJBQ 232048Z 2321/2418 09012KT P6SM SCT028 SCT035 SCT060 
     FM232200 10007KT P6SM FEW022 SCT030 SCT060 
     FM241400 08012KT P6SM SCT035 
     FM241700 07016KT P6SM VCTS SCT025CB SCT040 BKN060
       
TJPS 231720Z 2318/2418 14016G24KT P6SM VCTS FEW030CB SCT050 BKN180 
     FM232300 10004KT P6SM FEW035 SCT080 BKN250 
     FM241400 13015KT P6SM FEW030 SCT060 AMD NOT SKED
       
TJSJ 231720Z 2318/2418 06016G22KT P6SM VCSH SCT025 SCT035 BKN070 
     FM232200 09008KT P6SM VCSH FEW025 SCT040 SCT070 
     FM241400 06013KT P6SM FEW035 SCT050